Time;durP1;ratioP1;P1;durP2;ratioP2;P2;SDS_P1;SDS_P2;PMS_P1;PMS_P2;Temp;Humidity;BMP_temperature;BMP_pressure;BME280_temperature;BME280_humidity;BME280_pressure;Samples;Min_cycle;Max_cycle;Signal;HPM_P1;HPM_P2
2022/05/14 00:02:03;;;;;;;33.58;5.57;;;11.20;83.30;;;;;;4867523;29;20499;-90
2022/05/14 00:04:31;;;;;;;22.05;3.83;;;11.20;83.30;;;;;;4867460;29;20060;-91
2022/05/14 00:06:59;;;;;;;23.45;4.25;;;11.20;83.40;;;;;;4870141;29;20053;-92
2022/05/14 00:09:26;;;;;;;25.30;3.83;;;11.20;83.40;;;;;;4868857;29;20050;-88
2022/05/14 00:14:40;;;;;;;26.88;4.82;;;11.20;83.40;;;;;;4868721;29;20396;-93
2022/05/14 00:17:08;;;;;;;35.22;6.13;;;11.20;83.50;;;;;;4866872;29;20076;-91
2022/05/14 00:19:36;;;;;;;31.35;4.72;;;11.20;83.60;;;;;;4873805;29;20065;-90
2022/05/14 00:22:04;;;;;;;28.35;4.95;;;11.20;83.60;;;;;;4867568;29;20064;-91
2022/05/14 00:24:31;;;;;;;30.85;5.38;;;11.20;83.70;;;;;;4877551;29;20044;-89
2022/05/14 00:26:59;;;;;;;29.40;4.80;;;11.20;83.70;;;;;;4879489;29;20061;-92
2022/05/14 00:29:27;;;;;;;36.25;6.18;;;11.10;83.70;;;;;;4871292;29;20558;-92
2022/05/14 00:31:55;;;;;;;33.72;6.00;;;11.10;83.80;;;;;;4872271;29;20057;-92
2022/05/14 00:34:22;;;;;;;26.38;5.05;;;11.10;84.00;;;;;;4873374;29;20057;-94
2022/05/14 00:36:50;;;;;;;28.08;4.95;;;11.00;84.10;;;;;;4873865;29;20701;-93
2022/05/14 00:39:18;;;;;;;25.10;5.07;;;11.00;84.10;;;;;;4852448;29;20065;-92
2022/05/14 00:41:48;;;;;;;33.95;5.80;;;11.00;84.20;;;;;;4873170;29;20050;-90
2022/05/14 00:44:16;;;;;;;29.13;5.50;;;11.00;84.20;;;;;;4862373;29;20041;-92
2022/05/14 00:46:58;;;;;;;38.38;5.50;;;11.00;84.30;;;;;;4868100;29;20124;-90
2022/05/14 00:49:30;;;;;;;37.72;5.30;;;11.00;84.40;;;;;;4866977;29;20076;-91
2022/05/14 00:52:00;;;;;;;23.00;4.88;;;11.00;84.40;;;;;;4862843;29;20057;-91
2022/05/14 00:54:34;;;;;;;22.35;4.47;;;11.00;84.40;;;;;;4864686;29;20057;-91
2022/05/14 00:57:10;;;;;;;28.58;4.97;;;11.00;84.40;;;;;;4873720;29;20073;-92
2022/05/14 00:59:38;;;;;;;30.73;5.35;;;11.00;84.40;;;;;;4865010;29;20037;-91
2022/05/14 01:02:06;;;;;;;26.52;5.20;;;11.00;84.40;;;;;;4856429;29;20050;-92
2022/05/14 01:04:38;;;;;;;25.30;4.03;;;11.10;84.40;;;;;;4867261;29;20172;-94
2022/05/14 01:07:16;;;;;;;33.92;5.38;;;11.00;84.40;;;;;;4884213;29;20042;-92
2022/05/14 01:09:55;;;;;;;31.25;4.85;;;11.00;84.40;;;;;;4867293;29;20042;-91
2022/05/14 01:12:25;;;;;;;26.75;5.18;;;11.00;84.50;;;;;;4870074;29;20068;-92
2022/05/14 01:14:54;;;;;;;23.20;4.70;;;11.00;84.50;;;;;;4870051;29;20058;-93
2022/05/14 01:17:21;;;;;;;29.52;5.28;;;11.00;84.50;;;;;;4871628;29;20049;-92
2022/05/14 01:19:49;;;;;;;37.13;5.50;;;11.00;84.60;;;;;;4860902;29;20068;-91
2022/05/14 01:22:26;;;;;;;28.67;5.13;;;11.00;84.60;;;;;;4860975;29;20057;-92
2022/05/14 01:28:16;;;;;;;31.45;5.70;;;10.90;84.70;;;;;;4862435;29;20049;-92
2022/05/14 01:30:57;;;;;;;39.08;6.28;;;10.80;84.60;;;;;;4861353;29;20046;-94
2022/05/14 01:33:26;;;;;;;26.20;4.55;;;10.80;84.80;;;;;;4861177;29;20057;-92
2022/05/14 01:35:54;;;;;;;30.35;5.85;;;10.80;85.00;;;;;;4879397;29;20046;-92
2022/05/14 01:38:23;;;;;;;29.80;5.55;;;10.70;85.10;;;;;;4876741;29;20022;-90
2022/05/14 01:40:52;;;;;;;31.30;5.57;;;10.70;85.30;;;;;;4875674;29;20415;-91
2022/05/14 01:43:19;;;;;;;38.47;5.38;;;10.70;85.30;;;;;;4844769;29;20069;-92
2022/05/14 01:45:48;;;;;;;35.25;5.93;;;10.60;85.30;;;;;;4848067;29;20057;-93
2022/05/14 01:48:15;;;;;;;32.47;5.63;;;10.60;85.40;;;;;;4854075;29;20427;-91
2022/05/14 01:50:43;;;;;;;33.85;6.13;;;10.60;85.40;;;;;;4873395;29;20053;-93
2022/05/14 01:53:11;;;;;;;27.38;5.45;;;10.50;85.50;;;;;;4867419;29;20045;-92
2022/05/14 01:55:42;;;;;;;33.25;5.63;;;10.50;85.60;;;;;;4869992;29;20058;-92
2022/05/14 02:01:00;;;;;;;35.03;5.70;;;10.40;85.70;;;;;;4873417;29;20403;-92
2022/05/14 02:03:28;;;;;;;40.30;6.20;;;10.40;85.70;;;;;;4866259;29;20057;-93
2022/05/14 02:05:57;;;;;;;36.92;6.03;;;10.40;85.80;;;;;;4863338;29;20566;-92
2022/05/14 02:08:25;;;;;;;41.53;6.28;;;10.40;86.10;;;;;;4861800;29;20053;-92
2022/05/14 02:10:53;;;;;;;29.88;5.55;;;10.40;86.10;;;;;;4858214;29;20061;-92
2022/05/14 02:13:21;;;;;;;35.92;6.57;;;10.40;86.10;;;;;;4863381;29;20064;-92
2022/05/14 02:15:49;;;;;;;39.92;6.18;;;10.50;86.00;;;;;;4855391;29;20527;-91
2022/05/14 02:18:19;;;;;;;29.58;5.22;;;10.40;85.90;;;;;;4871465;29;20065;-92
2022/05/14 02:20:47;;;;;;;37.50;6.15;;;10.40;86.10;;;;;;4863180;29;20049;-94
2022/05/14 02:23:15;;;;;;;34.90;6.28;;;10.40;86.20;;;;;;4865640;29;20427;-91
2022/05/14 02:25:43;;;;;;;44.80;6.60;;;10.40;86.10;;;;;;4869213;29;20526;-91
2022/05/14 02:28:11;;;;;;;38.80;6.10;;;10.40;86.10;;;;;;4847688;29;20062;-92
2022/05/14 02:30:39;;;;;;;36.22;5.88;;;10.30;86.10;;;;;;4846752;29;20058;-91
2022/05/14 02:33:07;;;;;;;30.20;6.18;;;10.30;86.10;;;;;;4860849;29;20053;-92
2022/05/14 02:35:36;;;;;;;34.72;6.18;;;10.30;86.20;;;;;;4859015;29;20056;-91
2022/05/14 02:38:04;;;;;;;34.17;8.13;;;10.30;86.20;;;;;;4859475;29;20511;-88
2022/05/14 02:40:32;;;;;;;37.13;7.15;;;10.20;86.20;;;;;;4861223;29;20491;-92
2022/05/14 02:43:00;;;;;;;41.30;7.65;;;10.20;86.20;;;;;;4858539;29;20053;-85
2022/05/14 02:45:28;;;;;;;32.05;6.40;;;10.10;86.30;;;;;;4856713;29;20049;-92
2022/05/14 02:47:56;;;;;;;35.95;7.18;;;10.10;86.30;;;;;;4866030;29;20068;-91
2022/05/14 02:50:25;;;;;;;37.35;6.65;;;10.00;86.30;;;;;;4872424;29;20046;-90
2022/05/14 02:52:53;;;;;;;34.67;6.85;;;9.90;86.40;;;;;;4874237;29;20040;-93
2022/05/14 02:55:21;;;;;;;41.95;7.18;;;9.90;86.40;;;;;;4866335;29;20415;-92
2022/05/14 02:57:49;;;;;;;45.53;7.55;;;9.80;86.50;;;;;;4843942;29;20054;-92
2022/05/14 03:00:19;;;;;;;30.23;6.82;;;9.80;86.60;;;;;;4854215;29;20065;-92
2022/05/14 03:02:48;;;;;;;41.63;6.50;;;9.70;86.60;;;;;;4855320;29;20057;-93
2022/05/14 03:05:19;;;;;;;39.10;6.72;;;9.70;86.80;;;;;;4859159;29;20085;-92
2022/05/14 03:07:48;;;;;;;28.40;6.10;;;9.70;86.80;;;;;;4861517;29;20060;-92
2022/05/14 03:10:17;;;;;;;28.83;6.40;;;9.60;86.80;;;;;;4863035;29;20063;-92
2022/05/14 03:12:45;;;;;;;38.70;6.82;;;9.60;86.90;;;;;;4882923;29;20056;-92
2022/05/14 03:15:14;;;;;;;34.85;6.47;;;9.60;86.90;;;;;;4872327;29;20056;-92
2022/05/14 03:17:42;;;;;;;35.55;6.78;;;9.50;86.90;;;;;;4861131;29;20057;-92
2022/05/14 03:20:12;;;;;;;38.70;6.78;;;9.50;87.00;;;;;;4860033;29;20049;-92
2022/05/14 03:22:41;;;;;;;32.92;6.70;;;9.50;87.10;;;;;;4858092;29;20072;-91
2022/05/14 03:25:10;;;;;;;32.95;6.82;;;9.50;87.10;;;;;;4857694;29;20049;-92
2022/05/14 03:27:38;;;;;;;41.47;6.47;;;9.40;87.10;;;;;;4858669;29;20402;-91
2022/05/14 03:30:06;;;;;;;37.83;6.60;;;9.40;87.10;;;;;;4828065;29;20065;-92
2022/05/14 03:32:35;;;;;;;39.00;6.93;;;9.40;87.10;;;;;;4876287;29;20060;-92
2022/05/14 03:35:05;;;;;;;31.08;6.15;;;9.30;87.20;;;;;;4848011;29;20061;-92
2022/05/14 03:37:33;;;;;;;34.58;7.30;;;9.30;87.20;;;;;;4858028;29;20053;-92
2022/05/14 03:40:03;;;;;;;37.33;6.75;;;9.30;87.30;;;;;;4858007;29;20049;-92
2022/05/14 03:42:31;;;;;;;37.25;6.35;;;9.30;87.30;;;;;;4861725;29;20078;-92
2022/05/14 03:44:59;;;;;;;33.42;6.85;;;9.30;87.40;;;;;;4860090;29;20034;-93
2022/05/14 03:47:28;;;;;;;39.88;6.78;;;9.20;87.40;;;;;;4879296;29;20053;-92
2022/05/14 03:49:56;;;;;;;45.28;7.07;;;9.20;87.50;;;;;;4858966;29;20053;-91
2022/05/14 03:52:25;;;;;;;34.03;6.63;;;9.20;87.50;;;;;;4842511;29;20065;-91
2022/05/14 03:54:53;;;;;;;44.45;7.32;;;9.20;87.50;;;;;;4853943;29;20049;-92
2022/05/14 03:57:20;;;;;;;43.42;7.00;;;9.20;87.50;;;;;;4863048;29;20054;-91
2022/05/14 03:59:48;;;;;;;37.80;7.30;;;9.10;87.60;;;;;;4860289;29;20057;-91
2022/05/14 04:02:16;;;;;;;38.17;7.03;;;9.10;87.60;;;;;;4877798;29;20049;-91
2022/05/14 04:04:43;;;;;;;38.15;8.07;;;9.10;87.60;;;;;;4877749;29;20064;-90
2022/05/14 04:07:11;;;;;;;36.30;6.85;;;9.10;87.60;;;;;;4869273;29;20058;-91
2022/05/14 04:09:39;;;;;;;32.80;6.90;;;9.00;87.70;;;;;;4862074;29;20060;-91
2022/05/14 04:12:08;;;;;;;30.15;7.13;;;9.00;87.80;;;;;;4860832;29;20060;-91
2022/05/14 04:14:43;;;;;;;30.92;7.55;;;9.00;87.80;;;;;;4860957;29;20508;-91
2022/05/14 04:17:11;;;;;;;39.33;7.88;;;9.00;87.80;;;;;;4859278;29;20058;-91
2022/05/14 04:19:39;;;;;;;42.60;7.88;;;8.90;87.90;;;;;;4858007;29;20072;-91
2022/05/14 04:22:07;;;;;;;37.22;7.68;;;8.90;87.90;;;;;;4855449;29;20061;-92
2022/05/14 04:24:36;;;;;;;34.50;7.65;;;8.90;87.90;;;;;;4857691;29;20042;-92
2022/05/14 04:27:04;;;;;;;34.75;7.65;;;8.90;87.90;;;;;;4855589;29;20049;-91
2022/05/14 04:29:32;;;;;;;39.85;7.80;;;8.90;88.00;;;;;;4858733;29;20053;-91
2022/05/14 04:31:59;;;;;;;37.65;7.47;;;8.80;88.00;;;;;;4857321;29;20060;-90
2022/05/14 04:34:27;;;;;;;43.95;7.90;;;8.80;88.00;;;;;;4879735;29;20061;-91
2022/05/14 04:37:01;;;;;;;34.97;7.45;;;8.80;88.00;;;;;;4883527;29;20119;-90
2022/05/14 04:39:40;;;;;;;25.60;7.10;;;8.80;88.10;;;;;;4865246;29;20112;-90
2022/05/14 04:42:10;;;;;;;38.47;7.53;;;8.80;88.10;;;;;;4854718;29;20408;-91
2022/05/14 04:44:40;;;;;;;48.20;9.02;;;8.80;88.10;;;;;;4861542;29;20054;-90
2022/05/14 04:47:10;;;;;;;41.75;7.78;;;8.80;88.10;;;;;;4857147;29;20052;-91
2022/05/14 04:49:44;;;;;;;40.28;7.97;;;8.80;88.10;;;;;;4863084;29;20057;-91
2022/05/14 04:52:13;;;;;;;32.22;7.43;;;8.80;88.10;;;;;;4855276;29;20061;-91
2022/05/14 04:54:41;;;;;;;46.95;7.72;;;8.80;88.10;;;;;;4859510;29;20597;-91
2022/05/14 04:57:10;;;;;;;41.78;8.27;;;8.80;88.20;;;;;;4840584;29;20515;-92
2022/05/14 04:59:37;;;;;;;32.33;8.13;;;8.80;88.20;;;;;;4871784;29;20135;-91
2022/05/14 05:04:55;;;;;;;38.20;8.20;;;8.80;88.30;;;;;;4857202;29;20057;-91
2022/05/14 05:07:24;;;;;;;35.03;7.20;;;8.80;88.20;;;;;;4856803;29;20045;-92
2022/05/14 05:09:53;;;;;;;47.30;8.30;;;8.90;88.30;;;;;;4853787;29;20408;-92
2022/05/14 05:12:21;;;;;;;38.00;6.97;;;9.00;88.20;;;;;;4861220;29;20061;-92
2022/05/14 05:14:54;;;;;;;30.80;6.93;;;9.00;88.20;;;;;;4852029;29;20053;-92
2022/05/14 05:17:21;;;;;;;44.00;8.30;;;9.00;88.20;;;;;;4860883;29;20058;-92
2022/05/14 05:19:49;;;;;;;25.70;6.25;;;9.20;88.10;;;;;;4861273;29;20511;-92
2022/05/14 05:22:17;;;;;;;30.35;6.88;;;9.30;88.10;;;;;;4860859;29;20053;-93
2022/05/14 05:24:47;;;;;;;31.33;6.15;;;9.40;88.00;;;;;;4862705;29;20049;-93
2022/05/14 05:27:16;;;;;;;28.60;6.50;;;9.50;87.90;;;;;;4864560;29;20053;-91
2022/05/14 05:29:44;;;;;;;45.47;7.50;;;9.70;87.80;;;;;;4864077;29;20068;-92
2022/05/14 05:32:12;;;;;;;36.53;7.00;;;9.80;87.70;;;;;;4862561;29;20053;-92
2022/05/14 05:34:40;;;;;;;35.85;6.40;;;10.00;87.60;;;;;;4860562;29;20597;-91
2022/05/14 05:37:08;;;;;;;33.88;5.95;;;10.10;87.50;;;;;;4862492;29;20526;-92
2022/05/14 05:39:35;;;;;;;33.60;6.65;;;10.30;87.40;;;;;;4845924;29;20415;-91
2022/05/14 05:42:03;;;;;;;41.45;6.72;;;10.50;87.30;;;;;;4861748;29;20053;-90
2022/05/14 05:44:31;;;;;;;34.13;5.88;;;10.60;87.00;;;;;;4862259;29;20056;-91
2022/05/14 05:47:03;;;;;;;37.00;5.38;;;10.80;86.80;;;;;;4862282;29;20045;-91
2022/05/14 05:49:34;;;;;;;41.33;6.03;;;10.80;86.60;;;;;;4863386;29;20049;-92
2022/05/14 05:52:03;;;;;;;30.65;5.75;;;11.00;86.40;;;;;;4868288;29;20077;-92
2022/05/14 05:57:27;;;;;;;31.13;5.20;;;11.30;85.90;;;;;;4881675;29;20051;-93
2022/05/14 05:59:55;;;;;;;31.48;5.22;;;11.30;85.60;;;;;;4880912;29;20055;-94
2022/05/14 06:02:23;;;;;;;25.67;5.10;;;11.40;85.40;;;;;;4863396;29;20057;-93
2022/05/14 06:04:50;;;;;;;24.38;4.70;;;11.50;84.90;;;;;;4870465;29;20045;-93
2022/05/14 06:07:18;;;;;;;25.67;5.65;;;11.50;84.70;;;;;;4876627;29;20044;-93
2022/05/14 06:09:47;;;;;;;28.58;5.00;;;11.60;84.50;;;;;;4872974;29;20487;-93
2022/05/14 06:12:15;;;;;;;23.02;4.57;;;11.60;84.50;;;;;;4892733;29;20053;-92
2022/05/14 06:14:44;;;;;;;29.42;6.18;;;11.70;84.40;;;;;;4874555;29;20049;-92
2022/05/14 06:17:11;;;;;;;30.45;5.43;;;11.70;84.30;;;;;;4868718;29;20065;-91
2022/05/14 06:19:40;;;;;;;34.53;5.78;;;11.70;84.30;;;;;;4870280;29;20515;-93
2022/05/14 06:22:08;;;;;;;28.75;5.07;;;11.60;84.20;;;;;;4893367;29;20054;-93
2022/05/14 06:24:36;;;;;;;32.50;4.88;;;11.60;84.20;;;;;;4876853;29;20060;-92
2022/05/14 06:27:04;;;;;;;22.92;4.90;;;11.50;84.20;;;;;;4881764;29;20225;-94
2022/05/14 06:29:33;;;;;;;22.80;4.78;;;11.40;84.30;;;;;;4864362;29;20060;-92
2022/05/14 06:32:00;;;;;;;28.10;5.45;;;11.30;84.40;;;;;;4845600;29;20537;-94
2022/05/14 06:34:28;;;;;;;39.88;6.22;;;11.30;84.60;;;;;;4867764;29;20064;-91
2022/05/14 06:37:00;;;;;;;35.15;5.30;;;11.20;84.80;;;;;;4874825;29;20037;-92
2022/05/14 06:39:28;;;;;;;32.67;6.32;;;11.10;84.90;;;;;;4879746;29;20049;-92
2022/05/14 06:41:57;;;;;;;30.75;5.43;;;11.00;85.00;;;;;;4861020;29;20058;-91
2022/05/14 06:44:25;;;;;;;27.35;5.93;;;11.00;85.10;;;;;;4859355;29;20057;-91
2022/05/14 06:46:52;;;;;;;30.23;5.78;;;11.00;85.20;;;;;;4865547;29;20053;-93
2022/05/14 06:49:20;;;;;;;39.67;6.15;;;10.90;85.20;;;;;;4863114;29;20053;-92
2022/05/14 06:51:48;;;;;;;40.75;5.78;;;10.90;85.20;;;;;;4861756;29;20056;-92
2022/05/14 06:54:17;;;;;;;36.53;6.82;;;10.90;85.30;;;;;;4855550;29;20050;-94
2022/05/14 06:56:44;;;;;;;35.58;5.95;;;10.90;85.30;;;;;;4862000;29;20062;-92
2022/05/14 06:59:14;;;;;;;29.73;5.35;;;10.90;85.30;;;;;;4863347;29;20053;-92
2022/05/14 07:01:46;;;;;;;35.97;6.10;;;11.00;85.30;;;;;;4868779;29;20054;-92
2022/05/14 07:07:05;;;;;;;29.17;5.95;;;11.30;85.20;;;;;;4850965;29;20061;-91
2022/05/14 07:09:33;;;;;;;33.90;6.57;;;11.30;85.00;;;;;;4867983;29;20061;-92
2022/05/14 07:12:08;;;;;;;38.65;6.53;;;11.50;84.90;;;;;;4863936;29;20077;-93
2022/05/14 07:14:40;;;;;;;30.05;5.57;;;11.70;84.70;;;;;;4863410;29;20052;-91
2022/05/14 07:17:10;;;;;;;30.13;6.10;;;11.80;84.50;;;;;;4874729;29;20049;-93
2022/05/14 07:19:39;;;;;;;30.52;5.88;;;12.00;84.20;;;;;;4875475;29;20060;-91
2022/05/14 07:22:07;;;;;;;27.75;5.35;;;12.10;84.00;;;;;;4866011;29;20060;-92
2022/05/14 07:24:34;;;;;;;31.67;5.68;;;12.30;83.60;;;;;;4859693;29;20068;-91
2022/05/14 07:27:04;;;;;;;25.50;5.03;;;12.30;83.40;;;;;;4861849;29;20069;-93
2022/05/14 07:29:32;;;;;;;37.20;5.03;;;12.50;83.30;;;;;;4860449;29;20049;-92
2022/05/14 07:31:59;;;;;;;28.27;5.22;;;12.60;82.80;;;;;;4860135;29;20054;-91
2022/05/14 07:34:27;;;;;;;20.35;4.57;;;12.70;82.50;;;;;;4881814;29;20057;-91
2022/05/14 07:37:02;;;;;;;33.40;5.40;;;12.70;82.20;;;;;;4852571;29;20053;-92
2022/05/14 07:39:44;;;;;;;35.63;5.75;;;12.80;81.90;;;;;;4861798;29;20056;-93
2022/05/14 07:42:19;;;;;;;37.95;6.05;;;12.80;81.90;;;;;;4853091;29;20519;-92
2022/05/14 07:44:50;;;;;;;38.40;5.75;;;12.90;81.80;;;;;;4859829;29;20053;-93
2022/05/14 07:47:17;;;;;;;25.92;5.18;;;13.00;81.50;;;;;;4861856;29;20084;-92
2022/05/14 07:49:47;;;;;;;21.15;4.60;;;13.10;81.40;;;;;;4860058;29;20068;-93
2022/05/14 07:52:16;;;;;;;19.25;5.22;;;13.10;81.30;;;;;;4868912;29;20060;-93
2022/05/14 07:54:45;;;;;;;26.08;5.13;;;13.20;81.20;;;;;;4861570;29;20072;-93
2022/05/14 07:57:13;;;;;;;32.25;5.63;;;13.30;80.80;;;;;;4878278;29;20059;-93
2022/05/14 07:59:40;;;;;;;22.33;4.55;;;13.30;80.50;;;;;;4860388;29;20061;-94
2022/05/14 08:02:28;;;;;;;28.38;5.30;;;13.30;79.80;;;;;;4864157;29;20065;-93
2022/05/14 08:04:57;;;;;;;21.73;4.57;;;13.30;79.60;;;;;;4890184;29;20051;-94
2022/05/14 08:07:26;;;;;;;32.45;5.57;;;13.30;79.80;;;;;;4883650;29;20055;-93
2022/05/14 08:09:58;;;;;;;29.73;5.80;;;13.30;79.80;;;;;;4897860;29;20039;-93
2022/05/14 08:12:37;;;;;;;34.38;5.13;;;13.40;79.40;;;;;;4870962;29;20072;-92
2022/05/14 08:15:06;;;;;;;28.15;5.40;;;13.50;79.00;;;;;;4872575;29;20053;-92
2022/05/14 08:17:34;;;;;;;33.47;5.28;;;13.70;79.00;;;;;;4874191;29;20062;-90
2022/05/14 08:20:03;;;;;;;32.85;5.72;;;13.80;78.00;;;;;;4873182;29;20045;-92
2022/05/14 08:25:17;;;;;;;24.92;4.90;;;14.10;77.50;;;;;;4877250;29;20379;-92
2022/05/14 08:27:44;;;;;;;38.47;5.93;;;14.20;77.00;;;;;;4860416;29;20056;-93
2022/05/14 08:30:14;;;;;;;24.83;4.35;;;14.30;76.90;;;;;;4856743;29;20171;-93
2022/05/14 08:32:42;;;;;;;29.17;5.05;;;14.50;76.50;;;;;;4863213;29;20053;-94
2022/05/14 08:35:11;;;;;;;28.45;4.90;;;14.70;76.20;;;;;;4862522;29;20056;-92
2022/05/14 08:37:40;;;;;;;24.73;5.45;;;14.80;75.50;;;;;;4858800;29;20057;-92
2022/05/14 08:40:17;;;;;;;20.83;4.88;;;15.00;75.00;;;;;;4862480;29;20061;-90
2022/05/14 08:42:51;;;;;;;29.88;5.05;;;15.10;74.00;;;;;;4861913;29;20051;-90
2022/05/14 08:45:26;;;;;;;23.88;4.43;;;15.10;73.40;;;;;;4867897;29;20061;-93
2022/05/14 08:48:01;;;;;;;31.95;5.57;;;15.20;73.30;;;;;;4873305;29;20054;-93
2022/05/14 08:50:34;;;;;;;29.98;4.82;;;15.30;73.10;;;;;;4873594;29;20487;-93
2022/05/14 08:53:06;;;;;;;23.63;4.95;;;15.40;72.70;;;;;;4853896;29;20056;-93
2022/05/14 08:55:46;;;;;;;28.15;5.30;;;15.50;72.30;;;;;;4867998;29;20041;-93
2022/05/14 08:58:34;;;;;;;28.60;4.93;;;15.60;72.00;;;;;;4866001;29;20057;-92
2022/05/14 09:01:04;;;;;;;33.67;4.82;;;15.70;71.80;;;;;;4871138;29;20097;-92
2022/05/14 09:03:32;;;;;;;33.50;5.18;;;15.70;71.20;;;;;;4860393;29;20554;-91
2022/05/14 09:06:00;;;;;;;23.08;4.85;;;15.70;71.40;;;;;;4864481;29;20056;-93
2022/05/14 09:08:27;;;;;;;28.65;5.40;;;15.90;71.10;;;;;;4858843;29;20042;-91
2022/05/14 09:10:59;;;;;;;27.08;5.00;;;16.00;70.30;;;;;;4878010;29;20057;-92
2022/05/14 09:13:28;;;;;;;28.00;5.28;;;16.10;69.50;;;;;;4872746;29;20057;-92
2022/05/14 09:16:02;;;;;;;23.30;4.72;;;16.30;69.40;;;;;;4870790;29;20652;-90
2022/05/14 09:18:47;;;;;;;31.33;5.20;;;16.50;69.10;;;;;;4863865;29;20056;-86
2022/05/14 09:21:24;;;;;;;29.55;5.15;;;16.70;68.80;;;;;;4863667;29;20422;-81
2022/05/14 09:23:58;;;;;;;34.72;5.70;;;16.90;67.80;;;;;;4865626;29;20482;-87
2022/05/14 09:26:28;;;;;;;29.48;5.10;;;17.00;67.50;;;;;;4865276;29;20052;-90
2022/05/14 09:29:01;;;;;;;25.33;4.70;;;17.00;67.50;;;;;;4864777;29;20053;-89
2022/05/14 09:31:32;;;;;;;20.00;4.78;;;17.20;66.30;;;;;;4859864;29;20061;-92
2022/05/14 09:34:10;;;;;;;25.58;4.50;;;17.30;66.20;;;;;;4861406;29;20527;-91
2022/05/14 09:36:42;;;;;;;22.77;4.60;;;17.50;65.60;;;;;;4863104;29;20053;-90
2022/05/14 09:39:15;;;;;;;26.65;4.93;;;17.60;65.10;;;;;;4861891;29;20046;-91
2022/05/14 09:41:49;;;;;;;19.65;4.45;;;17.70;65.10;;;;;;4862442;29;20411;-90
2022/05/14 09:44:47;;;;;;;25.80;5.13;;;17.90;64.70;;;;;;4862830;29;20041;-92
2022/05/14 09:47:28;;;;;;;24.33;4.68;;;17.90;62.80;;;;;;4840226;29;20061;-87
2022/05/14 09:49:59;;;;;;;23.55;4.82;;;17.90;61.90;;;;;;4840996;29;20065;-88
2022/05/14 09:52:29;;;;;;;23.23;4.40;;;17.90;62.00;;;;;;4873837;29;20045;-89
2022/05/14 09:54:58;;;;;;;25.75;4.90;;;18.00;61.80;;;;;;4860798;29;20053;-88
2022/05/14 09:57:40;;;;;;;25.23;5.40;;;18.00;61.50;;;;;;4862686;29;20072;-88
2022/05/14 10:00:36;;;;;;;25.40;5.60;;;17.90;61.60;;;;;;4862790;29;20064;-90
2022/05/14 10:03:49;;;;;;;29.50;4.88;;;18.00;61.90;;;;;;4860229;29;20065;-90
2022/05/14 10:06:25;;;;;;;23.85;5.20;;;18.10;61.80;;;;;;4864600;29;20041;-90
2022/05/14 10:09:12;;;;;;;22.95;4.78;;;18.30;61.60;;;;;;4862633;29;20514;-91
2022/05/14 10:11:44;;;;;;;19.67;4.30;;;18.30;61.00;;;;;;4863369;29;20053;-90
2022/05/14 10:14:47;;;;;;;29.08;4.75;;;18.50;60.50;;;;;;4862054;29;20073;-90
2022/05/14 10:17:39;;;;;;;18.83;4.53;;;18.60;60.50;;;;;;4881538;29;20057;-92
2022/05/14 10:20:19;;;;;;;22.05;4.63;;;18.80;58.40;;;;;;4890623;29;20047;-92
2022/05/14 10:28:57;;;;;;;20.70;4.15;;;19.20;58.00;;;;;;4872070;29;20061;-92
2022/05/14 10:31:48;;;;;;;29.52;4.88;;;19.30;57.00;;;;;;4867502;29;20066;-86
2022/05/14 10:34:21;;;;;;;25.23;4.45;;;19.30;57.70;;;;;;4861727;29;20052;-92
2022/05/14 10:36:52;;;;;;;;;;;19.30;56.70;;;;;;4866034;29;20064;-92
2022/05/14 10:39:50;;;;;;;23.52;4.20;;;19.30;56.10;;;;;;4864970;29;19935;-91
2022/05/14 10:42:59;;;;;;;17.73;4.13;;;19.30;56.10;;;;;;4866822;29;20046;-92
2022/05/14 10:45:42;;;;;;;23.73;4.57;;;19.30;55.50;;;;;;4862920;29;20522;-91
2022/05/14 10:48:50;;;;;;;18.70;3.92;;;19.30;56.20;;;;;;4861712;29;20171;-92
2022/05/14 10:51:31;;;;;;;20.13;4.13;;;19.40;56.00;;;;;;4856212;29;20049;-91
2022/05/14 10:54:00;;;;;;;21.33;3.90;;;19.40;56.10;;;;;;4860171;29;20065;-92
2022/05/14 10:56:35;;;;;;;16.75;4.13;;;19.50;55.00;;;;;;4853387;29;20057;-91
2022/05/14 10:59:11;;;;;;;20.38;4.00;;;19.60;55.30;;;;;;4857852;29;20053;-91
2022/05/14 11:01:53;;;;;;;18.58;4.05;;;19.80;54.40;;;;;;4858421;29;20049;-93
2022/05/14 11:04:44;;;;;;;16.88;3.90;;;19.80;53.30;;;;;;4865048;29;20037;-93
2022/05/14 11:07:29;;;;;;;19.98;4.47;;;19.80;52.20;;;;;;4862744;29;20053;-91
2022/05/14 11:10:29;;;;;;;22.85;4.28;;;19.80;51.90;;;;;;4859879;29;20419;-92
2022/05/14 11:13:18;;;;;;;24.27;3.75;;;19.90;52.40;;;;;;4850512;29;20503;-90
2022/05/14 11:16:03;;;;;;;21.00;3.97;;;19.90;51.20;;;;;;4865195;29;20064;-92
2022/05/14 11:18:43;;;;;;;24.70;4.53;;;19.80;51.20;;;;;;4865366;29;20530;-93
2022/05/14 11:21:11;;;;;;;25.02;4.22;;;19.90;51.20;;;;;;4863819;29;20060;-92
2022/05/14 11:23:59;;;;;;;19.45;4.38;;;20.10;51.50;;;;;;4866562;29;20062;-91
2022/05/14 11:26:28;;;;;;;21.27;4.30;;;20.40;50.20;;;;;;4866015;29;20427;-92
2022/05/14 11:29:09;;;;;;;18.30;3.78;;;20.50;50.10;;;;;;4864339;29;20057;-93
2022/05/14 11:31:42;;;;;;;14.52;3.00;;;20.80;50.80;;;;;;4860552;29;20056;-91
2022/05/14 11:34:25;;;;;;;14.20;3.65;;;21.00;49.40;;;;;;4862462;29;20053;-89
2022/05/14 11:36:58;;;;;;;21.75;3.60;;;21.10;49.20;;;;;;4862733;29;20057;-91
2022/05/14 11:39:32;;;;;;;16.23;2.97;;;21.20;49.20;;;;;;4860724;29;20050;-91
2022/05/14 11:42:27;;;;;;;16.35;3.58;;;21.30;47.20;;;;;;4869654;29;20065;-92
2022/05/14 11:45:14;;;;;;;16.00;3.35;;;21.30;46.30;;;;;;4867288;29;20050;-92
2022/05/14 11:48:06;;;;;;;15.20;3.58;;;21.30;47.00;;;;;;4853855;29;20065;-90
2022/05/14 11:51:01;;;;;;;18.92;3.40;;;21.30;47.00;;;;;;4873516;29;20077;-94
2022/05/14 11:53:37;;;;;;;22.85;3.88;;;21.50;46.60;;;;;;4860175;29;20526;-91
2022/05/14 11:56:40;;;;;;;15.18;3.78;;;21.80;46.80;;;;;;4843214;29;20065;-92
2022/05/14 11:59:34;;;;;;;15.65;3.80;;;22.10;46.70;;;;;;4849887;29;20065;-91
2022/05/14 12:02:10;;;;;;;8.52;2.97;;;22.30;45.60;;;;;;4864041;29;20058;-90
2022/05/14 12:04:44;;;;;;;10.23;2.50;;;22.30;43.10;;;;;;4864849;29;20061;-84
2022/05/14 12:07:22;;;;;;;11.88;2.72;;;22.30;41.20;;;;;;4868230;29;20053;-91
2022/05/14 12:10:32;;;;;;;12.77;2.60;;;22.30;41.00;;;;;;4865691;29;20053;-91
2022/05/14 12:13:06;;;;;;;10.80;3.90;;;22.50;41.20;;;;;;4873702;29;20062;-89
2022/05/14 12:15:34;;;;;;;17.70;3.65;;;22.70;42.00;;;;;;4843805;29;20065;-90
2022/05/14 12:18:02;;;;;;;16.45;4.03;;;23.00;42.40;;;;;;4865145;29;20120;-90
2022/05/14 12:20:37;;;;;;;20.00;4.70;;;23.30;41.70;;;;;;4864920;29;20068;-90
2022/05/14 12:23:11;;;;;;;35.65;8.40;;;23.40;42.50;;;;;;4880761;29;20058;-93
2022/05/14 12:25:41;;;;;;;29.25;6.85;;;23.70;42.50;;;;;;4870178;29;20145;-89
2022/05/14 12:28:26;;;;;;;14.18;3.42;;;23.80;42.60;;;;;;4877709;29;20041;-91
2022/05/14 12:34:01;;;;;;;11.32;3.40;;;24.30;42.30;;;;;;4883082;29;20045;-84
2022/05/14 12:36:33;;;;;;;13.90;3.30;;;24.70;42.00;;;;;;4877896;29;20061;-91
2022/05/14 12:39:21;;;;;;;15.75;3.60;;;25.10;41.10;;;;;;4876618;29;20057;-92
2022/05/14 12:41:54;;;;;;;10.93;2.33;;;25.30;40.00;;;;;;4874298;29;20072;-91
2022/05/14 12:44:42;;;;;;;10.88;3.13;;;25.60;36.30;;;;;;4876083;29;20057;-92
2022/05/14 12:47:19;;;;;;;11.13;2.85;;;25.50;34.70;;;;;;4877003;29;20049;-93
2022/05/14 12:49:47;;;;;;;11.25;2.90;;;25.50;36.40;;;;;;4876782;29;20061;-87
2022/05/14 12:52:23;;;;;;;10.15;3.05;;;25.60;36.40;;;;;;4868981;29;20423;-88
2022/05/14 12:54:59;;;;;;;16.45;3.42;;;25.60;36.40;;;;;;4862254;29;20671;-92
2022/05/14 12:57:29;;;;;;;11.93;2.97;;;25.30;36.40;;;;;;4863230;29;20057;-82
2022/05/14 13:00:00;;;;;;;11.38;2.83;;;25.20;36.90;;;;;;4859606;29;20053;-80
2022/05/14 13:02:31;;;;;;;14.32;3.58;;;25.30;37.50;;;;;;4860521;29;20053;-81
2022/05/14 13:05:09;;;;;;;13.77;3.45;;;25.50;38.00;;;;;;4860369;29;20056;-84
2022/05/14 13:08:17;;;;;;;12.07;3.05;;;25.80;36.70;;;;;;4831719;29;20061;-83
2022/05/14 13:10:54;;;;;;;10.52;2.92;;;26.10;34.40;;;;;;4853537;29;20064;-80
2022/05/14 13:13:38;;;;;;;8.00;2.45;;;26.20;33.60;;;;;;4859776;29;20381;-80
2022/05/14 13:16:19;;;;;;;14.23;3.00;;;26.40;32.30;;;;;;4858876;29;20057;-80
2022/05/14 13:18:50;;;;;;;10.00;2.80;;;26.60;33.80;;;;;;4855089;29;20801;-79
2022/05/14 13:21:25;;;;;;;10.60;2.88;;;27.10;33.90;;;;;;4856458;29;20065;-79
2022/05/14 13:24:05;;;;;;;56.35;32.40;;;27.60;32.90;;;;;;4872396;29;20538;-78
2022/05/14 13:26:47;;;;;;;11.07;2.75;;;28.00;32.70;;;;;;4858707;29;20064;-79
2022/05/14 13:29:37;;;;;;;10.02;2.50;;;28.30;30.70;;;;;;4859371;29;20053;-79
2022/05/14 13:32:33;;;;;;;47.67;28.17;;;28.30;29.10;;;;;;4864224;29;20064;-79
2022/05/14 13:38:07;;;;;;;15.07;4.03;;;28.30;31.80;;;;;;4859140;29;20053;-79
2022/05/14 13:40:53;;;;;;;7.18;2.45;;;28.80;31.90;;;;;;4858654;29;20060;-78